sensor_id;sensor_type;location;lat;lon;timestamp;P1;durP1;ratioP1;P2;durP2;ratioP2
11854;SDS011;5987;53.140;8.904;2022-09-20T00:02:47;11.47;;;2.73;;
11854;SDS011;5987;53.140;8.904;2022-09-20T00:05:51;10.13;;;2.73;;
11854;SDS011;5987;53.140;8.904;2022-09-20T00:08:56;12.50;;;2.43;;
11854;SDS011;5987;53.140;8.904;2022-09-20T00:12:01;5.73;;;2.43;;
11854;SDS011;5987;53.140;8.904;2022-09-20T00:15:06;12.97;;;2.20;;
11854;SDS011;5987;53.140;8.904;2022-09-20T00:18:11;9.00;;;1.90;;
11854;SDS011;5987;53.140;8.904;2022-09-20T00:21:15;6.63;;;2.47;;
11854;SDS011;5987;53.140;8.904;2022-09-20T00:24:23;11.60;;;2.27;;
11854;SDS011;5987;53.140;8.904;2022-09-20T00:27:27;6.97;;;1.97;;
11854;SDS011;5987;53.140;8.904;2022-09-20T00:30:31;10.63;;;2.17;;
11854;SDS011;5987;53.140;8.904;2022-09-20T00:33:36;11.73;;;2.57;;
11854;SDS011;5987;53.140;8.904;2022-09-20T00:36:56;7.47;;;3.23;;
11854;SDS011;5987;53.140;8.904;2022-09-20T00:40:02;9.83;;;2.17;;
11854;SDS011;5987;53.140;8.904;2022-09-20T00:43:09;10.63;;;2.70;;
11854;SDS011;5987;53.140;8.904;2022-09-20T00:46:19;9.67;;;2.30;;
11854;SDS011;5987;53.140;8.904;2022-09-20T00:49:29;6.73;;;2.30;;
11854;SDS011;5987;53.140;8.904;2022-09-20T00:52:35;13.77;;;2.63;;
11854;SDS011;5987;53.140;8.904;2022-09-20T00:55:41;12.50;;;2.73;;
11854;SDS011;5987;53.140;8.904;2022-09-20T00:59:02;6.53;;;2.27;;
11854;SDS011;5987;53.140;8.904;2022-09-20T01:02:17;12.37;;;2.67;;
11854;SDS011;5987;53.140;8.904;2022-09-20T01:05:27;8.57;;;2.23;;
11854;SDS011;5987;53.140;8.904;2022-09-20T01:08:31;9.20;;;3.00;;
11854;SDS011;5987;53.140;8.904;2022-09-20T01:11:39;8.83;;;2.57;;
11854;SDS011;5987;53.140;8.904;2022-09-20T01:14:43;8.87;;;2.93;;
11854;SDS011;5987;53.140;8.904;2022-09-20T01:17:51;7.60;;;1.83;;
11854;SDS011;5987;53.140;8.904;2022-09-20T01:20:59;9.60;;;2.60;;
11854;SDS011;5987;53.140;8.904;2022-09-20T01:24:06;7.13;;;2.00;;
11854;SDS011;5987;53.140;8.904;2022-09-20T01:27:23;7.07;;;2.00;;
11854;SDS011;5987;53.140;8.904;2022-09-20T01:30:42;6.03;;;1.73;;
11854;SDS011;5987;53.140;8.904;2022-09-20T01:33:53;8.70;;;2.43;;
11854;SDS011;5987;53.140;8.904;2022-09-20T01:37:04;11.53;;;1.83;;
11854;SDS011;5987;53.140;8.904;2022-09-20T01:40:18;8.40;;;2.17;;
11854;SDS011;5987;53.140;8.904;2022-09-20T01:43:35;10.00;;;1.93;;
11854;SDS011;5987;53.140;8.904;2022-09-20T01:46:49;11.67;;;2.47;;
11854;SDS011;5987;53.140;8.904;2022-09-20T01:50:06;4.60;;;1.60;;
11854;SDS011;5987;53.140;8.904;2022-09-20T01:53:40;5.57;;;2.40;;
11854;SDS011;5987;53.140;8.904;2022-09-20T02:05:25;3.00;;;1.30;;
11854;SDS011;5987;53.140;8.904;2022-09-20T02:09:19;2.43;;;1.10;;
11854;SDS011;5987;53.140;8.904;2022-09-20T02:12:52;2.97;;;0.60;;
11854;SDS011;5987;53.140;8.904;2022-09-20T02:16:05;2.33;;;0.80;;
11854;SDS011;5987;53.140;8.904;2022-09-20T02:19:48;2.77;;;0.93;;
11854;SDS011;5987;53.140;8.904;2022-09-20T02:23:15;2.43;;;1.00;;
11854;SDS011;5987;53.140;8.904;2022-09-20T02:26:38;3.63;;;0.97;;
11854;SDS011;5987;53.140;8.904;2022-09-20T02:29:59;1.13;;;1.00;;
11854;SDS011;5987;53.140;8.904;2022-09-20T02:33:34;4.57;;;1.20;;
11854;SDS011;5987;53.140;8.904;2022-09-20T02:37:10;6.83;;;1.10;;
11854;SDS011;5987;53.140;8.904;2022-09-20T02:40:45;3.93;;;1.03;;
11854;SDS011;5987;53.140;8.904;2022-09-20T02:44:14;3.90;;;0.70;;
11854;SDS011;5987;53.140;8.904;2022-09-20T02:47:31;3.90;;;0.80;;
11854;SDS011;5987;53.140;8.904;2022-09-20T02:50:41;1.83;;;0.70;;
11854;SDS011;5987;53.140;8.904;2022-09-20T02:54:00;1.57;;;0.80;;
11854;SDS011;5987;53.140;8.904;2022-09-20T02:57:20;2.20;;;0.60;;
11854;SDS011;5987;53.140;8.904;2022-09-20T03:00:36;0.70;;;0.60;;
11854;SDS011;5987;53.140;8.904;2022-09-20T03:03:52;3.00;;;1.00;;
11854;SDS011;5987;53.140;8.904;2022-09-20T03:07:11;3.80;;;1.20;;
11854;SDS011;5987;53.140;8.904;2022-09-20T03:10:31;3.70;;;1.30;;
11854;SDS011;5987;53.140;8.904;2022-09-20T03:13:49;5.60;;;1.23;;
11854;SDS011;5987;53.140;8.904;2022-09-20T03:17:17;3.47;;;1.20;;
11854;SDS011;5987;53.140;8.904;2022-09-20T03:20:40;6.57;;;1.50;;
11854;SDS011;5987;53.140;8.904;2022-09-20T03:24:01;7.03;;;1.50;;
11854;SDS011;5987;53.140;8.904;2022-09-20T03:27:22;5.10;;;1.60;;
11854;SDS011;5987;53.140;8.904;2022-09-20T03:30:45;4.83;;;1.97;;
11854;SDS011;5987;53.140;8.904;2022-09-20T03:34:04;6.80;;;2.07;;
11854;SDS011;5987;53.140;8.904;2022-09-20T03:37:32;10.33;;;2.17;;
11854;SDS011;5987;53.140;8.904;2022-09-20T03:49:11;10.17;;;2.47;;
11854;SDS011;5987;53.140;8.904;2022-09-20T03:52:58;8.37;;;2.57;;
11854;SDS011;5987;53.140;8.904;2022-09-20T03:56:40;8.20;;;2.20;;
11854;SDS011;5987;53.140;8.904;2022-09-20T04:00:23;6.87;;;3.20;;
11854;SDS011;5987;53.140;8.904;2022-09-20T04:03:48;10.23;;;2.13;;
11854;SDS011;5987;53.140;8.904;2022-09-20T04:07:09;9.13;;;2.33;;
11854;SDS011;5987;53.140;8.904;2022-09-20T04:10:28;12.93;;;2.67;;
11854;SDS011;5987;53.140;8.904;2022-09-20T04:13:49;6.30;;;2.40;;
11854;SDS011;5987;53.140;8.904;2022-09-20T04:17:17;10.63;;;2.63;;
11854;SDS011;5987;53.140;8.904;2022-09-20T04:20:42;8.87;;;2.93;;
11854;SDS011;5987;53.140;8.904;2022-09-20T04:23:55;16.07;;;3.30;;
11854;SDS011;5987;53.140;8.904;2022-09-20T04:27:09;18.47;;;3.50;;
11854;SDS011;5987;53.140;8.904;2022-09-20T04:30:22;12.63;;;3.60;;
11854;SDS011;5987;53.140;8.904;2022-09-20T04:33:33;14.10;;;4.10;;
11854;SDS011;5987;53.140;8.904;2022-09-20T04:36:57;12.10;;;3.43;;
11854;SDS011;5987;53.140;8.904;2022-09-20T04:40:08;13.83;;;3.73;;
11854;SDS011;5987;53.140;8.904;2022-09-20T04:51:40;12.17;;;4.00;;
11854;SDS011;5987;53.140;8.904;2022-09-20T04:59:01;7.33;;;3.20;;
11854;SDS011;5987;53.140;8.904;2022-09-20T05:02:24;10.10;;;2.90;;
11854;SDS011;5987;53.140;8.904;2022-09-20T05:06:12;6.57;;;3.23;;
11854;SDS011;5987;53.140;8.904;2022-09-20T05:10:04;11.27;;;4.07;;
11854;SDS011;5987;53.140;8.904;2022-09-20T05:13:59;11.43;;;3.50;;
11854;SDS011;5987;53.140;8.904;2022-09-20T05:17:50;11.27;;;2.80;;
11854;SDS011;5987;53.140;8.904;2022-09-20T05:21:41;9.63;;;2.50;;
11854;SDS011;5987;53.140;8.904;2022-09-20T05:25:04;12.37;;;3.47;;
11854;SDS011;5987;53.140;8.904;2022-09-20T05:28:35;9.07;;;3.10;;
11854;SDS011;5987;53.140;8.904;2022-09-20T05:31:57;12.37;;;5.07;;
11854;SDS011;5987;53.140;8.904;2022-09-20T05:35:14;10.07;;;3.10;;
11854;SDS011;5987;53.140;8.904;2022-09-20T05:38:29;7.30;;;2.70;;
11854;SDS011;5987;53.140;8.904;2022-09-20T05:41:49;11.73;;;2.37;;
11854;SDS011;5987;53.140;8.904;2022-09-20T05:45:05;10.53;;;2.97;;
11854;SDS011;5987;53.140;8.904;2022-09-20T05:48:35;7.27;;;2.80;;
11854;SDS011;5987;53.140;8.904;2022-09-20T05:51:55;12.43;;;2.90;;
11854;SDS011;5987;53.140;8.904;2022-09-20T05:55:43;11.37;;;3.00;;
11854;SDS011;5987;53.140;8.904;2022-09-20T05:59:07;8.20;;;2.17;;
11854;SDS011;5987;53.140;8.904;2022-09-20T06:02:38;7.20;;;2.53;;
11854;SDS011;5987;53.140;8.904;2022-09-20T06:05:57;11.97;;;2.50;;
11854;SDS011;5987;53.140;8.904;2022-09-20T06:09:25;7.20;;;2.60;;
11854;SDS011;5987;53.140;8.904;2022-09-20T06:12:50;5.50;;;2.07;;
11854;SDS011;5987;53.140;8.904;2022-09-20T06:16:06;9.63;;;2.13;;
11854;SDS011;5987;53.140;8.904;2022-09-20T06:19:21;10.23;;;2.70;;
11854;SDS011;5987;53.140;8.904;2022-09-20T06:22:38;6.90;;;2.00;;
11854;SDS011;5987;53.140;8.904;2022-09-20T06:25:48;6.00;;;1.67;;
11854;SDS011;5987;53.140;8.904;2022-09-20T06:29:01;4.47;;;1.80;;
11854;SDS011;5987;53.140;8.904;2022-09-20T06:32:14;6.03;;;2.03;;
11854;SDS011;5987;53.140;8.904;2022-09-20T06:35:19;9.53;;;2.00;;
11854;SDS011;5987;53.140;8.904;2022-09-20T06:38:31;8.60;;;1.93;;
11854;SDS011;5987;53.140;8.904;2022-09-20T06:42:04;8.53;;;2.33;;
11854;SDS011;5987;53.140;8.904;2022-09-20T06:45:33;6.30;;;1.87;;
11854;SDS011;5987;53.140;8.904;2022-09-20T06:48:38;8.47;;;1.70;;
11854;SDS011;5987;53.140;8.904;2022-09-20T06:51:42;3.60;;;1.40;;
11854;SDS011;5987;53.140;8.904;2022-09-20T06:54:47;8.17;;;2.27;;
11854;SDS011;5987;53.140;8.904;2022-09-20T06:57:56;8.97;;;2.13;;
11854;SDS011;5987;53.140;8.904;2022-09-20T07:01:01;9.10;;;2.17;;
11854;SDS011;5987;53.140;8.904;2022-09-20T07:04:05;7.77;;;2.17;;
11854;SDS011;5987;53.140;8.904;2022-09-20T07:07:12;7.57;;;2.40;;
11854;SDS011;5987;53.140;8.904;2022-09-20T07:10:19;8.33;;;2.30;;
11854;SDS011;5987;53.140;8.904;2022-09-20T07:13:23;7.23;;;2.20;;
11854;SDS011;5987;53.140;8.904;2022-09-20T07:16:28;10.40;;;2.27;;
11854;SDS011;5987;53.140;8.904;2022-09-20T07:19:32;6.17;;;2.10;;
11854;SDS011;5987;53.140;8.904;2022-09-20T07:22:37;7.03;;;2.33;;
11854;SDS011;5987;53.140;8.904;2022-09-20T07:25:41;7.93;;;2.30;;
11854;SDS011;5987;53.140;8.904;2022-09-20T07:28:44;7.73;;;2.10;;
11854;SDS011;5987;53.140;8.904;2022-09-20T07:31:51;6.97;;;2.27;;
11854;SDS011;5987;53.140;8.904;2022-09-20T07:34:55;5.83;;;2.03;;
11854;SDS011;5987;53.140;8.904;2022-09-20T07:37:59;8.37;;;2.30;;
11854;SDS011;5987;53.140;8.904;2022-09-20T07:41:03;9.23;;;2.50;;
11854;SDS011;5987;53.140;8.904;2022-09-20T07:44:07;5.43;;;2.60;;
11854;SDS011;5987;53.140;8.904;2022-09-20T07:47:26;7.97;;;2.70;;
11854;SDS011;5987;53.140;8.904;2022-09-20T07:50:32;11.33;;;3.07;;
11854;SDS011;5987;53.140;8.904;2022-09-20T07:53:37;10.17;;;3.47;;
11854;SDS011;5987;53.140;8.904;2022-09-20T07:56:42;8.97;;;3.03;;
11854;SDS011;5987;53.140;8.904;2022-09-20T07:59:46;11.93;;;3.47;;
11854;SDS011;5987;53.140;8.904;2022-09-20T08:02:57;10.10;;;3.90;;
11854;SDS011;5987;53.140;8.904;2022-09-20T08:06:02;8.47;;;3.00;;
11854;SDS011;5987;53.140;8.904;2022-09-20T08:09:08;7.87;;;3.20;;
11854;SDS011;5987;53.140;8.904;2022-09-20T08:12:13;10.00;;;3.43;;
11854;SDS011;5987;53.140;8.904;2022-09-20T08:16:00;8.73;;;2.67;;
11854;SDS011;5987;53.140;8.904;2022-09-20T08:19:06;9.97;;;2.73;;
11854;SDS011;5987;53.140;8.904;2022-09-20T08:22:13;5.77;;;2.13;;
11854;SDS011;5987;53.140;8.904;2022-09-20T08:25:16;7.47;;;2.20;;
11854;SDS011;5987;53.140;8.904;2022-09-20T08:28:20;5.10;;;1.83;;
11854;SDS011;5987;53.140;8.904;2022-09-20T08:31:24;5.93;;;2.30;;
11854;SDS011;5987;53.140;8.904;2022-09-20T08:34:33;9.03;;;2.30;;
11854;SDS011;5987;53.140;8.904;2022-09-20T08:37:36;5.10;;;1.50;;
11854;SDS011;5987;53.140;8.904;2022-09-20T08:40:40;4.30;;;1.67;;
11854;SDS011;5987;53.140;8.904;2022-09-20T08:43:45;6.13;;;2.30;;
11854;SDS011;5987;53.140;8.904;2022-09-20T08:46:59;8.23;;;1.97;;
11854;SDS011;5987;53.140;8.904;2022-09-20T08:50:11;7.67;;;1.70;;
11854;SDS011;5987;53.140;8.904;2022-09-20T08:53:18;9.00;;;2.03;;
11854;SDS011;5987;53.140;8.904;2022-09-20T08:56:22;7.47;;;1.83;;
11854;SDS011;5987;53.140;8.904;2022-09-20T08:59:33;9.07;;;2.60;;
11854;SDS011;5987;53.140;8.904;2022-09-20T09:02:36;5.80;;;1.57;;
11854;SDS011;5987;53.140;8.904;2022-09-20T09:05:43;5.47;;;1.73;;
11854;SDS011;5987;53.140;8.904;2022-09-20T09:08:58;7.13;;;2.20;;
11854;SDS011;5987;53.140;8.904;2022-09-20T09:12:02;5.53;;;2.20;;
11854;SDS011;5987;53.140;8.904;2022-09-20T09:15:20;4.27;;;1.67;;
11854;SDS011;5987;53.140;8.904;2022-09-20T09:18:31;4.63;;;1.40;;
11854;SDS011;5987;53.140;8.904;2022-09-20T09:21:41;5.77;;;1.80;;
11854;SDS011;5987;53.140;8.904;2022-09-20T09:24:49;4.17;;;1.43;;
11854;SDS011;5987;53.140;8.904;2022-09-20T09:28:28;3.53;;;0.90;;
11854;SDS011;5987;53.140;8.904;2022-09-20T09:31:37;7.40;;;1.37;;
11854;SDS011;5987;53.140;8.904;2022-09-20T09:34:41;5.33;;;1.40;;
11854;SDS011;5987;53.140;8.904;2022-09-20T09:37:51;5.57;;;1.20;;
11854;SDS011;5987;53.140;8.904;2022-09-20T09:40:58;6.90;;;1.63;;
11854;SDS011;5987;53.140;8.904;2022-09-20T09:44:04;4.40;;;1.37;;
11854;SDS011;5987;53.140;8.904;2022-09-20T09:47:21;4.90;;;1.30;;
11854;SDS011;5987;53.140;8.904;2022-09-20T09:50:30;3.03;;;0.90;;
11854;SDS011;5987;53.140;8.904;2022-09-20T09:53:37;5.63;;;1.00;;
11854;SDS011;5987;53.140;8.904;2022-09-20T09:56:48;4.97;;;0.77;;
11854;SDS011;5987;53.140;8.904;2022-09-20T10:00:17;1.90;;;0.93;;
11854;SDS011;5987;53.140;8.904;2022-09-20T10:03:36;2.87;;;0.60;;
11854;SDS011;5987;53.140;8.904;2022-09-20T10:06:57;2.60;;;1.10;;
11854;SDS011;5987;53.140;8.904;2022-09-20T10:10:15;1.57;;;0.77;;
11854;SDS011;5987;53.140;8.904;2022-09-20T10:13:34;2.47;;;0.63;;
11854;SDS011;5987;53.140;8.904;2022-09-20T10:16:53;1.83;;;0.80;;
11854;SDS011;5987;53.140;8.904;2022-09-20T10:23:52;1.53;;;0.83;;
11854;SDS011;5987;53.140;8.904;2022-09-20T10:27:15;3.57;;;0.63;;
11854;SDS011;5987;53.140;8.904;2022-09-20T10:30:35;5.50;;;1.40;;
11854;SDS011;5987;53.140;8.904;2022-09-20T10:34:12;1.97;;;0.73;;
11854;SDS011;5987;53.140;8.904;2022-09-20T10:37:50;2.80;;;0.83;;
11854;SDS011;5987;53.140;8.904;2022-09-20T10:41:14;4.43;;;1.30;;
11854;SDS011;5987;53.140;8.904;2022-09-20T10:45:06;3.87;;;1.07;;
11854;SDS011;5987;53.140;8.904;2022-09-20T10:48:40;2.97;;;1.17;;
11854;SDS011;5987;53.140;8.904;2022-09-20T10:51:53;1.00;;;0.57;;
11854;SDS011;5987;53.140;8.904;2022-09-20T10:55:26;3.50;;;0.77;;
11854;SDS011;5987;53.140;8.904;2022-09-20T10:58:44;2.23;;;1.10;;
11854;SDS011;5987;53.140;8.904;2022-09-20T11:02:29;2.83;;;1.20;;
11854;SDS011;5987;53.140;8.904;2022-09-20T11:05:55;1.17;;;0.90;;
11854;SDS011;5987;53.140;8.904;2022-09-20T11:09:16;1.37;;;0.80;;
11854;SDS011;5987;53.140;8.904;2022-09-20T11:12:26;1.90;;;0.43;;
11854;SDS011;5987;53.140;8.904;2022-09-20T11:15:39;2.00;;;0.80;;
11854;SDS011;5987;53.140;8.904;2022-09-20T11:18:55;2.83;;;0.50;;
11854;SDS011;5987;53.140;8.904;2022-09-20T11:22:06;2.47;;;0.60;;
11854;SDS011;5987;53.140;8.904;2022-09-20T11:25:15;2.33;;;0.97;;
11854;SDS011;5987;53.140;8.904;2022-09-20T11:28:30;1.97;;;0.50;;
11854;SDS011;5987;53.140;8.904;2022-09-20T11:31:41;1.10;;;0.50;;
11854;SDS011;5987;53.140;8.904;2022-09-20T11:34:53;1.30;;;0.40;;
11854;SDS011;5987;53.140;8.904;2022-09-20T11:38:05;5.77;;;0.90;;
11854;SDS011;5987;53.140;8.904;2022-09-20T11:41:25;4.47;;;0.93;;
11854;SDS011;5987;53.140;8.904;2022-09-20T11:44:30;1.73;;;0.50;;
11854;SDS011;5987;53.140;8.904;2022-09-20T11:47:41;0.87;;;0.60;;
11854;SDS011;5987;53.140;8.904;2022-09-20T11:51:09;1.93;;;0.63;;
11854;SDS011;5987;53.140;8.904;2022-09-20T11:54:59;1.87;;;0.80;;
11854;SDS011;5987;53.140;8.904;2022-09-20T11:58:26;1.93;;;0.77;;
11854;SDS011;5987;53.140;8.904;2022-09-20T12:01:33;2.40;;;0.63;;
11854;SDS011;5987;53.140;8.904;2022-09-20T12:04:42;1.57;;;0.60;;
11854;SDS011;5987;53.140;8.904;2022-09-20T12:07:55;3.20;;;0.73;;
11854;SDS011;5987;53.140;8.904;2022-09-20T12:11:04;3.83;;;0.70;;
11854;SDS011;5987;53.140;8.904;2022-09-20T12:14:15;1.43;;;0.40;;
11854;SDS011;5987;53.140;8.904;2022-09-20T12:21:25;1.03;;;0.47;;
11854;SDS011;5987;53.140;8.904;2022-09-20T12:24:30;2.23;;;0.30;;
11854;SDS011;5987;53.140;8.904;2022-09-20T12:27:54;3.80;;;1.00;;
11854;SDS011;5987;53.140;8.904;2022-09-20T12:34:42;2.03;;;0.67;;
11854;SDS011;5987;53.140;8.904;2022-09-20T12:37:45;4.00;;;1.27;;
11854;SDS011;5987;53.140;8.904;2022-09-20T12:41:07;3.53;;;0.93;;
11854;SDS011;5987;53.140;8.904;2022-09-20T12:44:24;4.97;;;0.90;;
11854;SDS011;5987;53.140;8.904;2022-09-20T12:47:34;3.23;;;0.70;;
11854;SDS011;5987;53.140;8.904;2022-09-20T12:50:39;2.83;;;0.80;;
11854;SDS011;5987;53.140;8.904;2022-09-20T12:54:00;10.27;;;1.13;;
11854;SDS011;5987;53.140;8.904;2022-09-20T12:57:17;4.70;;;1.40;;
11854;SDS011;5987;53.140;8.904;2022-09-20T13:00:34;3.33;;;0.80;;
11854;SDS011;5987;53.140;8.904;2022-09-20T13:03:41;2.27;;;0.80;;
11854;SDS011;5987;53.140;8.904;2022-09-20T13:07:24;2.20;;;1.03;;
11854;SDS011;5987;53.140;8.904;2022-09-20T13:10:44;5.63;;;1.10;;
11854;SDS011;5987;53.140;8.904;2022-09-20T13:13:57;3.77;;;0.97;;
11854;SDS011;5987;53.140;8.904;2022-09-20T13:17:21;2.57;;;0.77;;
11854;SDS011;5987;53.140;8.904;2022-09-20T13:20:32;3.50;;;0.90;;
11854;SDS011;5987;53.140;8.904;2022-09-20T13:23:43;4.10;;;1.00;;
11854;SDS011;5987;53.140;8.904;2022-09-20T13:26:53;6.07;;;1.33;;
11854;SDS011;5987;53.140;8.904;2022-09-20T13:30:07;2.03;;;0.67;;
11854;SDS011;5987;53.140;8.904;2022-09-20T13:33:20;2.47;;;0.80;;
11854;SDS011;5987;53.140;8.904;2022-09-20T13:36:26;3.20;;;0.93;;
11854;SDS011;5987;53.140;8.904;2022-09-20T13:39:33;4.33;;;0.90;;
11854;SDS011;5987;53.140;8.904;2022-09-20T13:42:38;2.73;;;0.70;;
11854;SDS011;5987;53.140;8.904;2022-09-20T13:45:42;4.97;;;1.13;;
11854;SDS011;5987;53.140;8.904;2022-09-20T13:48:51;3.47;;;0.73;;
11854;SDS011;5987;53.140;8.904;2022-09-20T13:52:11;2.97;;;0.90;;
11854;SDS011;5987;53.140;8.904;2022-09-20T13:55:28;5.27;;;1.00;;
11854;SDS011;5987;53.140;8.904;2022-09-20T13:58:35;4.73;;;0.97;;
11854;SDS011;5987;53.140;8.904;2022-09-20T14:01:39;1.80;;;1.00;;
11854;SDS011;5987;53.140;8.904;2022-09-20T14:04:52;1.30;;;0.60;;
11854;SDS011;5987;53.140;8.904;2022-09-20T14:07:58;3.83;;;0.83;;
11854;SDS011;5987;53.140;8.904;2022-09-20T14:11:11;5.20;;;1.37;;
11854;SDS011;5987;53.140;8.904;2022-09-20T14:14:18;3.90;;;0.90;;
11854;SDS011;5987;53.140;8.904;2022-09-20T14:17:24;3.77;;;1.10;;
11854;SDS011;5987;53.140;8.904;2022-09-20T14:20:34;1.53;;;0.77;;
11854;SDS011;5987;53.140;8.904;2022-09-20T14:23:47;4.83;;;1.17;;
11854;SDS011;5987;53.140;8.904;2022-09-20T14:27:13;6.10;;;1.00;;
11854;SDS011;5987;53.140;8.904;2022-09-20T14:30:26;5.13;;;1.20;;
11854;SDS011;5987;53.140;8.904;2022-09-20T14:33:33;3.70;;;1.00;;
11854;SDS011;5987;53.140;8.904;2022-09-20T14:36:47;4.57;;;0.90;;
11854;SDS011;5987;53.140;8.904;2022-09-20T14:39:53;2.97;;;1.10;;
11854;SDS011;5987;53.140;8.904;2022-09-20T14:43:01;3.17;;;0.97;;
11854;SDS011;5987;53.140;8.904;2022-09-20T14:46:09;5.40;;;1.30;;
11854;SDS011;5987;53.140;8.904;2022-09-20T14:49:19;3.97;;;1.10;;
11854;SDS011;5987;53.140;8.904;2022-09-20T14:52:36;4.83;;;1.37;;
11854;SDS011;5987;53.140;8.904;2022-09-20T14:55:53;5.00;;;1.27;;
11854;SDS011;5987;53.140;8.904;2022-09-20T14:59:21;3.77;;;1.00;;
11854;SDS011;5987;53.140;8.904;2022-09-20T15:02:28;4.10;;;1.00;;
11854;SDS011;5987;53.140;8.904;2022-09-20T15:05:32;3.73;;;1.07;;
11854;SDS011;5987;53.140;8.904;2022-09-20T15:08:36;7.77;;;1.50;;
11854;SDS011;5987;53.140;8.904;2022-09-20T15:11:46;4.00;;;1.20;;
11854;SDS011;5987;53.140;8.904;2022-09-20T15:15:03;6.17;;;1.20;;
11854;SDS011;5987;53.140;8.904;2022-09-20T15:18:10;3.60;;;1.03;;
11854;SDS011;5987;53.140;8.904;2022-09-20T15:21:22;8.07;;;1.83;;
11854;SDS011;5987;53.140;8.904;2022-09-20T15:24:25;5.77;;;1.30;;
11854;SDS011;5987;53.140;8.904;2022-09-20T15:27:29;5.23;;;1.07;;
11854;SDS011;5987;53.140;8.904;2022-09-20T15:30:34;11.63;;;1.43;;
11854;SDS011;5987;53.140;8.904;2022-09-20T15:33:38;2.73;;;0.80;;
11854;SDS011;5987;53.140;8.904;2022-09-20T15:36:44;4.40;;;1.00;;
11854;SDS011;5987;53.140;8.904;2022-09-20T15:39:49;5.47;;;1.20;;
11854;SDS011;5987;53.140;8.904;2022-09-20T15:42:53;3.67;;;1.10;;
11854;SDS011;5987;53.140;8.904;2022-09-20T15:46:00;3.67;;;1.07;;
11854;SDS011;5987;53.140;8.904;2022-09-20T15:49:21;5.13;;;1.27;;
11854;SDS011;5987;53.140;8.904;2022-09-20T15:52:24;6.07;;;1.20;;
11854;SDS011;5987;53.140;8.904;2022-09-20T15:55:29;5.83;;;1.20;;
11854;SDS011;5987;53.140;8.904;2022-09-20T15:58:33;4.03;;;1.37;;
11854;SDS011;5987;53.140;8.904;2022-09-20T16:01:38;9.20;;;1.83;;
11854;SDS011;5987;53.140;8.904;2022-09-20T16:04:44;3.10;;;1.40;;
11854;SDS011;5987;53.140;8.904;2022-09-20T16:07:48;6.00;;;1.30;;
11854;SDS011;5987;53.140;8.904;2022-09-20T16:10:55;3.23;;;0.90;;
11854;SDS011;5987;53.140;8.904;2022-09-20T16:13:59;4.00;;;1.23;;
11854;SDS011;5987;53.140;8.904;2022-09-20T16:17:05;5.17;;;1.53;;
11854;SDS011;5987;53.140;8.904;2022-09-20T16:20:09;4.27;;;0.97;;
11854;SDS011;5987;53.140;8.904;2022-09-20T16:23:12;4.47;;;1.30;;
11854;SDS011;5987;53.140;8.904;2022-09-20T16:26:16;6.73;;;1.13;;
11854;SDS011;5987;53.140;8.904;2022-09-20T16:29:21;7.73;;;1.20;;
11854;SDS011;5987;53.140;8.904;2022-09-20T16:32:27;3.03;;;1.10;;
11854;SDS011;5987;53.140;8.904;2022-09-20T16:35:31;5.03;;;1.40;;
11854;SDS011;5987;53.140;8.904;2022-09-20T16:38:35;5.00;;;1.30;;
11854;SDS011;5987;53.140;8.904;2022-09-20T16:41:44;5.70;;;1.50;;
11854;SDS011;5987;53.140;8.904;2022-09-20T16:44:49;4.53;;;1.07;;
11854;SDS011;5987;53.140;8.904;2022-09-20T16:47:54;5.73;;;1.60;;
11854;SDS011;5987;53.140;8.904;2022-09-20T16:50:59;4.57;;;1.47;;
11854;SDS011;5987;53.140;8.904;2022-09-20T16:54:03;4.50;;;0.87;;
11854;SDS011;5987;53.140;8.904;2022-09-20T16:57:12;4.33;;;1.40;;
11854;SDS011;5987;53.140;8.904;2022-09-20T17:00:16;5.37;;;1.20;;
11854;SDS011;5987;53.140;8.904;2022-09-20T17:03:23;3.30;;;1.37;;
11854;SDS011;5987;53.140;8.904;2022-09-20T17:06:27;6.17;;;1.73;;
11854;SDS011;5987;53.140;8.904;2022-09-20T17:09:31;3.27;;;1.23;;
11854;SDS011;5987;53.140;8.904;2022-09-20T17:12:35;5.83;;;1.10;;
11854;SDS011;5987;53.140;8.904;2022-09-20T17:15:42;5.33;;;1.50;;
11854;SDS011;5987;53.140;8.904;2022-09-20T17:18:49;5.33;;;1.43;;
11854;SDS011;5987;53.140;8.904;2022-09-20T17:21:54;3.27;;;1.20;;
11854;SDS011;5987;53.140;8.904;2022-09-20T17:24:58;4.80;;;1.43;;
11854;SDS011;5987;53.140;8.904;2022-09-20T17:28:02;5.23;;;1.17;;
11854;SDS011;5987;53.140;8.904;2022-09-20T17:31:07;3.90;;;1.20;;
11854;SDS011;5987;53.140;8.904;2022-09-20T17:34:15;5.33;;;1.23;;
11854;SDS011;5987;53.140;8.904;2022-09-20T17:37:22;3.93;;;1.30;;
11854;SDS011;5987;53.140;8.904;2022-09-20T17:40:26;5.20;;;1.13;;
11854;SDS011;5987;53.140;8.904;2022-09-20T17:43:29;7.90;;;1.70;;
11854;SDS011;5987;53.140;8.904;2022-09-20T17:46:34;6.83;;;1.70;;
11854;SDS011;5987;53.140;8.904;2022-09-20T17:49:41;4.53;;;1.20;;
11854;SDS011;5987;53.140;8.904;2022-09-20T17:52:44;5.47;;;2.07;;
11854;SDS011;5987;53.140;8.904;2022-09-20T17:55:52;11.27;;;3.87;;
11854;SDS011;5987;53.140;8.904;2022-09-20T17:58:56;4.07;;;2.37;;
11854;SDS011;5987;53.140;8.904;2022-09-20T18:02:01;6.33;;;1.97;;
11854;SDS011;5987;53.140;8.904;2022-09-20T18:05:06;3.57;;;1.50;;
11854;SDS011;5987;53.140;8.904;2022-09-20T18:08:10;5.97;;;1.43;;
11854;SDS011;5987;53.140;8.904;2022-09-20T18:11:14;9.07;;;2.13;;
11854;SDS011;5987;53.140;8.904;2022-09-20T18:14:20;12.37;;;2.17;;
11854;SDS011;5987;53.140;8.904;2022-09-20T18:17:26;6.60;;;1.50;;
11854;SDS011;5987;53.140;8.904;2022-09-20T18:20:30;4.13;;;1.80;;
11854;SDS011;5987;53.140;8.904;2022-09-20T18:23:34;4.27;;;1.97;;
11854;SDS011;5987;53.140;8.904;2022-09-20T18:26:38;6.83;;;2.93;;
11854;SDS011;5987;53.140;8.904;2022-09-20T18:29:42;7.53;;;2.90;;
11854;SDS011;5987;53.140;8.904;2022-09-20T18:32:48;10.20;;;2.70;;
11854;SDS011;5987;53.140;8.904;2022-09-20T18:35:58;7.73;;;2.87;;
11854;SDS011;5987;53.140;8.904;2022-09-20T18:39:04;5.43;;;2.97;;
11854;SDS011;5987;53.140;8.904;2022-09-20T18:42:08;7.10;;;2.00;;
11854;SDS011;5987;53.140;8.904;2022-09-20T18:45:12;9.83;;;3.00;;
11854;SDS011;5987;53.140;8.904;2022-09-20T18:48:17;9.90;;;2.70;;
11854;SDS011;5987;53.140;8.904;2022-09-20T18:51:22;7.90;;;2.30;;
11854;SDS011;5987;53.140;8.904;2022-09-20T18:54:29;6.13;;;2.30;;
11854;SDS011;5987;53.140;8.904;2022-09-20T18:57:34;8.77;;;2.40;;
11854;SDS011;5987;53.140;8.904;2022-09-20T19:00:38;4.77;;;1.93;;
11854;SDS011;5987;53.140;8.904;2022-09-20T19:03:49;10.67;;;2.80;;
11854;SDS011;5987;53.140;8.904;2022-09-20T19:07:12;7.43;;;2.40;;
11854;SDS011;5987;53.140;8.904;2022-09-20T19:10:41;8.93;;;3.53;;
11854;SDS011;5987;53.140;8.904;2022-09-20T19:13:51;9.57;;;3.40;;
11854;SDS011;5987;53.140;8.904;2022-09-20T19:17:01;5.13;;;3.33;;
11854;SDS011;5987;53.140;8.904;2022-09-20T19:20:07;9.10;;;3.47;;
11854;SDS011;5987;53.140;8.904;2022-09-20T19:23:37;9.03;;;4.17;;
11854;SDS011;5987;53.140;8.904;2022-09-20T19:27:03;7.20;;;3.73;;
11854;SDS011;5987;53.140;8.904;2022-09-20T19:30:11;7.57;;;3.57;;
11854;SDS011;5987;53.140;8.904;2022-09-20T19:33:17;7.17;;;3.40;;
11854;SDS011;5987;53.140;8.904;2022-09-20T19:36:21;7.40;;;3.33;;
11854;SDS011;5987;53.140;8.904;2022-09-20T19:39:31;10.33;;;5.03;;
11854;SDS011;5987;53.140;8.904;2022-09-20T19:42:59;9.53;;;4.50;;
11854;SDS011;5987;53.140;8.904;2022-09-20T19:46:33;7.50;;;3.80;;
11854;SDS011;5987;53.140;8.904;2022-09-20T19:49:52;8.27;;;3.80;;
11854;SDS011;5987;53.140;8.904;2022-09-20T19:53:00;5.13;;;3.00;;
11854;SDS011;5987;53.140;8.904;2022-09-20T19:56:15;9.47;;;3.20;;
11854;SDS011;5987;53.140;8.904;2022-09-20T19:59:26;4.23;;;3.10;;
11854;SDS011;5987;53.140;8.904;2022-09-20T20:02:30;8.23;;;3.47;;
11854;SDS011;5987;53.140;8.904;2022-09-20T20:05:35;6.87;;;2.73;;
11854;SDS011;5987;53.140;8.904;2022-09-20T20:08:41;5.43;;;3.20;;
11854;SDS011;5987;53.140;8.904;2022-09-20T20:11:54;9.00;;;3.80;;
11854;SDS011;5987;53.140;8.904;2022-09-20T20:15:12;8.30;;;3.27;;
11854;SDS011;5987;53.140;8.904;2022-09-20T20:18:31;10.33;;;3.80;;
11854;SDS011;5987;53.140;8.904;2022-09-20T20:21:48;7.97;;;3.80;;
11854;SDS011;5987;53.140;8.904;2022-09-20T20:24:59;9.20;;;3.97;;